Pagrindinis puslapis
METAR-TAF:

METAR-TAF

Oro uostai :

St. Mary's, Aliaska, Jungtinės Amerikos Valstijos

platuma: 62-03N, ilguma: 163-18W, Aukštis: 95 m

Dabartinis oras

Ataskaita buvo paskelbta 41 minutes, ne 08:02 UTC
Vėjas 9 kt iš Šiaurės Vakarų
Temperatūra 11°C
Drėgmė 87%
Slėgis 1006 hPa
Matomumas: 16.1 km
Apsiniaukę ne aukštis 800 ft

METAR: PASM 160802Z AUTO 32009KT 10SM OVC008 11/09 A2971 RMK AO2 SLP068 T01060094 401060106

Laikas: 00:43 (08:43 UTC)


TAF: trūkstamas

Orai ataskaitas ir orų prognozės (METAR, TAF).

turimą stotys yra geltonos ir raudonos taškus žemėlapyje.

Perkelti pele per norėdami pamatyti stoties vardą.

Tada spustelėkite, norėdami matyti oro stebėjimo ir prognozės.

Norėdami pakeisti žemėlapį: spustelėkite ant žalios mygtukų su juodo kryžiaus žemyn,; žalią mygtuką su brūkšneliu, jei norite nutolinti; arba žalių rodyklių gretimoms žemėlapius.


METAR-TAF: